• Join FlightAware (Why Join?)
  • Login
  • US Flag 
04:55PM EDT


 

Airport Tracker/Info


-or-


 

Live Flight TrackerFlight Track Log ✈ N401PL ✈ 11-Jul-2013 ✈ KBKW - KCPS

Flight Track Log - Related Links

Times and Time Zones

All times are in EDT time to prevent confusion due to time zone crossing. See the N401PL flight status page for this flight to view local times or setup timezone preferences in your user account.

Time Position Orientation Groundspeed Altitude Reporting Facility
EDT Latitude Longitude Course Direction KTS MPH feet Rate Location/Type
03:04PM 37.7958 -81.2975 279° West 159 183 4,900  Level Indianapolis Center
03:05PM 37.8025 -81.3522 279° West 162 186 5,400 480 Climbing Indianapolis Center
03:06PM 37.8089 -81.4069 278° West 163 188 5,900 480 Climbing Indianapolis Center
03:07PM 37.8175 -81.4714 280° West 160 184 6,500 480 Climbing Indianapolis Center
03:08PM 37.8236 -81.5264 278° West 157 181 7,000 420 Climbing Indianapolis Center
03:09PM 37.8280 -81.4499 279° West  Level Estimated
03:10PM 37.8311 -81.5814 280° West 159 183 7,400  Level Indianapolis Center
03:11PM 37.8381 -81.6353 279° West 156 180 7,900 240 Climbing Indianapolis Center
03:12PM 37.8453 -81.6908 279° West 160 184 7,900  Level Indianapolis Center
03:13PM 37.8525 -81.7547 278° West 180 207 7,900  Level Indianapolis Center
03:14PM 37.8622 -81.8319 279° West 184 212 8,000  Climbing Indianapolis Center
03:15PM 37.8703 -81.8961 279° West 185 213 8,000  Level Indianapolis Center
03:16PM 37.8769 -81.9589 278° West 181 208 8,000  Level Indianapolis Center
03:17PM 37.8853 -82.0228 279° West 183 211 8,000  Level Indianapolis Center
03:18PM 37.8925 -82.0861 278° West 183 211 8,000  Level Indianapolis Center
03:19PM 37.9008 -82.1522 279° West 188 216 8,000  Level Indianapolis Center
03:20PM 37.9081 -82.2228 277° West 184 212 8,100  Climbing Indianapolis Center
03:21PM 37.9161 -82.2858 279° West 182 209 8,000 -60 Descending Indianapolis Center
03:22PM 37.9236 -82.3497 278° West 183 211 8,000  Level Indianapolis Center
03:23PM 37.9322 -82.4250 278° West 184 212 8,100  Climbing Indianapolis Center
03:24PM 37.9383 -82.4878 277° West 182 209 8,100 -60 Level Indianapolis Center
03:25PM 37.9461 -82.5522 279° West 184 212 8,000  Descending Indianapolis Center
03:26PM 37.9539 -82.6153 279° West 182 209 8,100  Climbing Indianapolis Center
03:27PM 37.9611 -82.6789 278° West 183 211 8,100  Level Indianapolis Center
03:28PM 37.9692 -82.7550 278° West 185 213 8,100 -60 Level Indianapolis Center
03:29PM 37.9769 -82.8192 279° West 185 213 8,000  Descending Indianapolis Center
03:30PM 37.9833 -82.8819 277° West 182 209 8,100  Climbing Indianapolis Center
03:31PM 37.9911 -82.9450 279° West 181 208 8,100 -60 Level Indianapolis Center
03:32PM 37.9975 -83.0097 277° West 184 212 8,000  Descending Indianapolis Center
03:33PM 37.9978 -83.0836 270° West 182 209 8,100  Climbing Indianapolis Center
03:34PM 37.9928 -83.1492 264° West 184 212 8,100  Level Indianapolis Center
03:35PM 37.9819 -83.2133 258° West 186 214 8,100  Level Indianapolis Center
03:36PM 37.9794 -83.2789 267° West 186 214 8,100 -60 Level Indianapolis Center
03:37PM 37.9803 -83.3436 271° West 185 213 8,000  Descending Indianapolis Center
03:38PM 37.9800 -83.4197 270° West 185 213 8,100  Climbing Indianapolis Center
03:40PM 37.9806 -83.4844 271° West 184 212 8,100  Level Indianapolis Center
03:41PM 37.9794 -83.5494 269° West 184 212 8,100 -60 Level Indianapolis Center
03:42PM 37.9794 -83.6167 270° West 188 216 8,000  Descending Indianapolis Center
03:43PM 37.9789 -83.6819 269° West 188 216 8,100  Climbing Indianapolis Center
03:44PM 37.9794 -83.7458 271° West 183 211 8,100 -60 Level Indianapolis Center
03:45PM 37.9767 -83.8225 267° West 186 214 8,000 -120 Descending Indianapolis Center
03:46PM 37.9719 -83.8878 265° West 187 215 7,900  Descending Indianapolis Center
03:47PM 37.9683 -83.9533 266° West 187 215 8,000  Climbing Indianapolis Center
03:48PM 37.9672 -84.0189 269° West 186 214 7,900  Descending Indianapolis Center
03:49PM 37.9672 -84.0847 270° West 187 215 8,000  Climbing Indianapolis Center
03:50PM 37.9653 -84.1619 268° West 188 216 7,900  Descending Indianapolis Center
03:51PM 37.9653 -84.2258 270° West 183 211 8,000  Climbing Indianapolis Center
03:52PM 37.9650 -84.2911 270° West 184 212 7,900 -60 Descending Indianapolis Center
03:53PM 37.9586 -84.3556 263° West 185 213 7,900  Level Indianapolis Center
03:54PM 37.9672 -84.4219 279° West 190 219 7,900  Level Indianapolis Center
03:55PM 37.9775 -84.4981 280° West 189 217 8,000  Climbing Indianapolis Center
03:56PM 37.9847 -84.5653 278° West 191 220 8,000 -60 Level Indianapolis Center
03:57PM 37.9936 -84.6311 280° West 189 217 7,900  Descending Indianapolis Center
03:58PM 38.0017 -84.6969 279° West 190 219 8,000  Climbing Indianapolis Center
03:59PM 38.0103 -84.7633 279° West 190 219 8,000 -60 Level Indianapolis Center
04:00PM 38.0189 -84.8286 280° West 189 217 7,900  Descending Indianapolis Center
04:01PM 38.0275 -84.9069 278° West 190 219 8,000  Climbing Indianapolis Center
04:02PM 38.0278 -84.9708 270° West 184 212 7,900  Descending Indianapolis Center
04:03PM 38.0267 -85.0381 269° West 188 216 8,000  Climbing Indianapolis Center
04:04PM 38.0364 -85.1031 281° West 188 216 8,000  Level Indianapolis Center
04:05PM 38.0486 -85.1678 284° West 189 217 8,000  Level Indianapolis Center
04:06PM 38.0561 -85.2397 278° West 186 214 8,000  Level Indianapolis Center
04:07PM 38.0642 -85.3047 279° West 185 213 8,000  Level Indianapolis Center
04:08PM 38.0733 -85.3697 280° West 186 214 8,000  Level Indianapolis Center
04:09PM 38.0814 -85.4350 279° West 187 215 8,000 -60 Level Indianapolis Center
04:11PM 38.0878 -85.5003 277° West 185 213 7,900  Descending Indianapolis Center
04:12PM 38.1006 -85.5756 282° West 182 209 8,000  Climbing Indianapolis Center
04:13PM 38.1081 -85.6400 278° West 183 211 7,900 -60 Descending Indianapolis Center
04:14PM 38.1147 -85.7061 277° West 186 214 7,900  Level Indianapolis Center
04:15PM 38.1233 -85.7706 280° West 187 215 8,000  Climbing Indianapolis Center
04:16PM 38.1311 -85.8336 279° West 181 208 8,000  Level Indianapolis Center
04:17PM 38.1394 -85.8992 279° West 186 214 8,000  Level Indianapolis Center
04:18PM 38.1475 -85.9647 279° West 188 216 8,000  Level Indianapolis Center
04:19PM 38.1564 -86.0433 278° West 187 215 8,000  Level Indianapolis Center
04:20PM 38.1633 -86.1089 278° West 187 215 8,000  Level Indianapolis Center
04:21PM 38.1722 -86.1769 279° West 192 221 8,000 -60 Level Indianapolis Center
04:22PM 38.1800 -86.2422 279° West 188 216 7,900  Descending Indianapolis Center
04:23PM 38.1878 -86.3103 278° West 192 221 8,000  Climbing Indianapolis Center
04:24PM 38.1956 -86.3758 279° West 189 217 7,900  Descending Indianapolis Center
04:25PM 38.2031 -86.4425 278° West 188 216 8,000  Climbing Indianapolis Center
04:26PM 38.2119 -86.5231 278° West 191 220 7,900  Descending Indianapolis Center
04:27PM 38.2200 -86.5886 279° West 188 216 8,000  Climbing Indianapolis Center
04:28PM 38.2267 -86.6544 277° West 187 215 8,000  Level Indianapolis Center
04:29PM 38.2344 -86.7206 279° West 188 216 8,000  Level Indianapolis Center
04:30PM 38.2419 -86.7867 278° West 189 217 8,000  Level Indianapolis Center
04:31PM 38.2489 -86.8542 277° West 190 219 8,000  Level Indianapolis Center
04:32PM 38.2567 -86.9222 278° West 193 222 8,000  Level Indianapolis Center
04:33PM 38.2658 -87.0042 278° West 193 222 8,000  Level Indianapolis Center
04:34PM 38.2736 -87.0731 278° West 191 220 8,000  Level Indianapolis Center
04:35PM 38.2814 -87.1425 278° West 191 220 8,000  Level Indianapolis Center
04:36PM 38.2886 -87.2108 278° West 192 221 8,000  Level Indianapolis Center
04:37PM 38.2961 -87.2792 278° West 193 222 8,000  Level Indianapolis Center
04:38PM 38.3036 -87.3481 278° West 194 223 8,000  Level Indianapolis Center
04:39PM 38.3106 -87.4161 277° West 194 223 8,000  Level Indianapolis Center
04:41PM 38.3183 -87.4867 278° West 197 227 8,000  Level Indianapolis Center
04:42PM 38.3258 -87.5572 278° West 200 230 8,000  Level Indianapolis Center
04:43PM 38.3333 -87.6275 278° West 200 230 8,000  Level Indianapolis Center
04:44PM 38.3419 -87.7122 277° West 201 231 8,000  Level Indianapolis Center
04:45PM 38.3494 -87.7833 278° West 202 232 8,000  Level Indianapolis Center
04:46PM 38.3572 -87.8536 278° West 200 230 8,000  Level Indianapolis Center
04:47PM 38.3639 -87.9247 277° West 201 231 8,000  Level Indianapolis Center
04:48PM 38.3717 -87.9944 278° West 200 230 8,000  Level Indianapolis Center
04:49PM 38.3778 -88.0658 276° West 201 231 8,000  Level Indianapolis Center
04:50PM 38.3856 -88.1364 278° West 201 231 8,000  Level Indianapolis Center
04:51PM 38.3944 -88.2211 278° West 201 231 8,000  Level Indianapolis Center
04:52PM 38.4014 -88.2914 277° West 200 230 8,000  Level Indianapolis Center
04:53PM 38.4089 -88.3625 278° West 201 231 8,000  Level Indianapolis Center
04:54PM 38.4161 -88.4336 277° West 201 231 8,000  Level Indianapolis Center
04:55PM 38.4228 -88.5047 277° West 201 231 8,000  Level Indianapolis Center
04:56PM 38.4300 -88.5758 277° West 201 231 8,000  Level Indianapolis Center
04:57PM 38.4350 -88.6469 275° West 201 231 8,000  Level Indianapolis Center
04:58PM 38.4436 -88.7328 277° West 202 232 8,000  Level Indianapolis Center
04:59PM 38.4514 -88.8039 278° West 202 232 8,000  Level Indianapolis Center
05:00PM 38.4581 -88.8761 277° West 203 234 8,000  Level Indianapolis Center
05:01PM 38.4647 -88.9475 277° West 203 234 8,000  Level Indianapolis Center
05:02PM 38.4714 -89.0183 277° West 202 232 8,000  Level Indianapolis Center
05:03PM 38.4789 -89.0869 278° West 199 229 8,000  Level Indianapolis Center
05:04PM 38.4867 -89.1706 277° West 198 228 8,000 -60 Level Indianapolis Center
05:06PM 38.4936 -89.2681 275° West 195 224 7,900 -120 Descending Kansas City Center